createdAt,value
2017-08-29T00:02:25.875Z,88.70
2017-08-29T00:04:58.408Z,88.80
2017-08-29T00:07:30.145Z,88.70
2017-08-29T00:10:03.063Z,88.90
2017-08-29T00:12:34.126Z,88.60
2017-08-29T00:15:05.616Z,88.70
2017-08-29T00:17:35.924Z,88.70
2017-08-29T00:20:05.608Z,89.40
2017-08-29T00:22:35.698Z,88.80
2017-08-29T00:25:05.378Z,88.80
2017-08-29T00:27:36.575Z,89.10
2017-08-29T00:30:07.768Z,89.20
2017-08-29T00:32:41.140Z,88.70
2017-08-29T00:35:14.099Z,88.80
2017-08-29T00:37:46.226Z,88.30
2017-08-29T00:40:18.003Z,87.90
2017-08-29T00:42:50.357Z,88.20
2017-08-29T00:45:22.022Z,88.40
2017-08-29T00:47:53.438Z,88.30
2017-08-29T00:50:24.442Z,88.40
2017-08-29T00:52:55.928Z,88.60
2017-08-29T00:55:26.034Z,88.80
2017-08-29T00:57:56.241Z,88.70
2017-08-29T01:00:26.959Z,88.40
2017-08-29T01:02:57.057Z,88.80
2017-08-29T01:05:24.825Z,89.50
2017-08-29T01:07:52.564Z,88.60
2017-08-29T01:10:20.350Z,88.30
2017-08-29T01:12:48.144Z,88.90
2017-08-29T01:15:15.916Z,88.90
2017-08-29T01:17:43.654Z,89.60
2017-08-29T01:20:11.596Z,90.00
2017-08-29T01:22:39.375Z,90.10
2017-08-29T01:25:07.154Z,89.70
2017-08-29T01:27:34.930Z,89.20
2017-08-29T01:30:02.728Z,89.20
2017-08-29T01:32:30.502Z,89.30
2017-08-29T01:34:58.305Z,89.80
2017-08-29T01:37:26.099Z,89.50
2017-08-29T01:39:53.900Z,89.50
2017-08-29T01:42:21.684Z,89.40
2017-08-29T01:44:49.465Z,89.30
2017-08-29T01:47:17.246Z,89.50
2017-08-29T01:49:45.043Z,89.50
2017-08-29T01:52:12.826Z,89.60
2017-08-29T01:54:40.611Z,89.50
2017-08-29T01:57:08.388Z,89.60
2017-08-29T01:59:36.179Z,89.60
2017-08-29T02:02:03.930Z,90.00
2017-08-29T02:04:31.716Z,90.00
2017-08-29T02:06:59.504Z,90.00
2017-08-29T02:09:27.276Z,90.30
2017-08-29T02:11:55.056Z,90.40
2017-08-29T02:14:22.820Z,90.60
2017-08-29T02:16:50.543Z,90.70
2017-08-29T02:19:18.269Z,90.90
2017-08-29T02:21:45.986Z,90.90
2017-08-29T02:24:13.696Z,90.80
2017-08-29T02:26:41.414Z,90.60
2017-08-29T02:29:09.126Z,91.10
2017-08-29T02:31:36.846Z,91.40
2017-08-29T02:34:04.559Z,91.20
2017-08-29T02:36:32.343Z,91.40
2017-08-29T02:39:00.066Z,91.30
2017-08-29T02:41:27.782Z,91.40
2017-08-29T02:43:55.494Z,91.40
2017-08-29T02:46:23.215Z,91.50
2017-08-29T02:48:51.011Z,91.50
2017-08-29T02:51:18.733Z,91.60
2017-08-29T02:53:46.454Z,91.80
2017-08-29T02:56:14.175Z,91.60
2017-08-29T02:58:41.889Z,92.00
2017-08-29T03:01:09.610Z,91.60
2017-08-29T03:03:37.348Z,91.80
2017-08-29T03:06:05.067Z,92.20
2017-08-29T03:08:32.783Z,92.20
2017-08-29T03:11:00.504Z,92.40
2017-08-29T03:13:28.246Z,92.70
2017-08-29T03:15:56.026Z,92.40
2017-08-29T03:18:23.764Z,92.40
2017-08-29T03:20:51.489Z,92.00
2017-08-29T03:23:19.208Z,92.30
2017-08-29T03:25:46.922Z,92.60
2017-08-29T03:28:14.635Z,92.80
2017-08-29T03:30:43.144Z,92.40
2017-08-29T03:33:10.858Z,92.40
2017-08-29T03:35:38.579Z,92.20
2017-08-29T03:38:06.291Z,92.60
2017-08-29T03:40:34.005Z,92.20
2017-08-29T03:43:01.734Z,92.30
2017-08-29T03:45:29.454Z,92.00
2017-08-29T03:47:57.201Z,92.10
2017-08-29T03:50:24.926Z,91.90
2017-08-29T03:52:52.651Z,91.60
2017-08-29T03:55:20.370Z,91.60
2017-08-29T03:57:48.087Z,91.30
2017-08-29T04:00:15.866Z,91.20
2017-08-29T04:02:43.582Z,90.70
2017-08-29T04:05:11.299Z,90.50
2017-08-29T04:07:39.013Z,90.70
2017-08-29T04:10:06.751Z,90.40
2017-08-29T04:12:34.500Z,90.60
2017-08-29T04:15:02.251Z,90.60
2017-08-29T04:17:29.990Z,90.40
2017-08-29T04:19:57.702Z,90.30
2017-08-29T04:22:25.438Z,90.20
2017-08-29T04:25:03.458Z,90.10
2017-08-29T04:27:31.203Z,90.00
2017-08-29T04:29:58.979Z,90.10
2017-08-29T04:32:26.711Z,90.60
2017-08-29T04:34:54.439Z,90.30
2017-08-29T04:37:22.179Z,90.30
2017-08-29T04:39:50.839Z,90.40
2017-08-29T04:42:18.578Z,90.90
2017-08-29T04:44:46.314Z,90.40
2017-08-29T04:47:14.040Z,90.20
2017-08-29T04:49:41.767Z,90.40
2017-08-29T04:52:09.535Z,90.30
2017-08-29T04:54:37.322Z,90.20
2017-08-29T04:57:05.071Z,90.20
2017-08-29T04:59:32.835Z,90.30
2017-08-29T05:02:00.667Z,90.50
2017-08-29T05:04:28.451Z,90.40
2017-08-29T05:06:56.203Z,90.40
2017-08-29T05:09:23.979Z,90.10
2017-08-29T05:11:51.747Z,90.20
2017-08-29T05:14:19.471Z,90.10
2017-08-29T05:16:47.204Z,90.30
2017-08-29T05:19:14.929Z,90.30
2017-08-29T05:21:42.656Z,90.10
2017-08-29T05:24:10.381Z,90.00
2017-08-29T05:26:38.104Z,89.80
2017-08-29T05:29:05.828Z,89.90
2017-08-29T05:31:33.550Z,89.80
2017-08-29T05:34:01.290Z,89.10
2017-08-29T05:36:29.031Z,88.80
2017-08-29T05:38:57.357Z,88.80
2017-08-29T05:41:25.095Z,88.90
2017-08-29T05:43:52.836Z,88.50
2017-08-29T05:46:20.566Z,88.30
2017-08-29T05:48:48.299Z,88.40
2017-08-29T05:51:16.056Z,88.30
2017-08-29T05:53:43.807Z,88.60
2017-08-29T05:56:11.595Z,88.40
2017-08-29T05:58:39.325Z,88.40
2017-08-29T06:01:07.097Z,88.80
2017-08-29T06:03:34.858Z,89.10
2017-08-29T06:06:02.609Z,88.60
2017-08-29T06:08:30.400Z,88.80
2017-08-29T06:10:58.191Z,89.10
2017-08-29T06:13:25.922Z,89.30
2017-08-29T06:15:53.670Z,88.90
2017-08-29T06:18:21.472Z,88.20
2017-08-29T06:20:49.222Z,86.90
2017-08-29T06:23:16.950Z,86.40
2017-08-29T06:25:44.683Z,84.60
2017-08-29T06:28:12.411Z,82.00
2017-08-29T06:30:40.138Z,79.30
2017-08-29T06:33:07.882Z,76.80
2017-08-29T06:35:35.603Z,74.40
2017-08-29T06:38:03.346Z,71.70
2017-08-29T06:40:31.065Z,69.40
2017-08-29T06:42:58.787Z,65.90
2017-08-29T06:45:26.540Z,62.70
2017-08-29T06:47:54.264Z,59.00
2017-08-29T06:50:21.974Z,57.00
2017-08-29T06:52:49.704Z,54.40
2017-08-29T06:55:17.442Z,51.50
2017-08-29T06:57:45.171Z,49.30
2017-08-29T07:00:12.899Z,46.90
2017-08-29T07:02:40.650Z,45.10
2017-08-29T07:05:08.383Z,43.00
2017-08-29T07:07:36.167Z,41.60
2017-08-29T07:10:03.914Z,40.30
2017-08-29T07:12:31.716Z,38.90
2017-08-29T07:14:59.507Z,37.50
2017-08-29T07:17:27.250Z,35.90
2017-08-29T07:19:54.989Z,35.00
2017-08-29T07:22:22.715Z,34.00
2017-08-29T07:24:50.491Z,33.50
2017-08-29T07:27:18.247Z,32.80
2017-08-29T07:29:45.991Z,31.90
2017-08-29T07:32:13.714Z,32.10
2017-08-29T07:34:41.458Z,32.50
2017-08-29T07:37:09.183Z,33.20
2017-08-29T07:39:36.919Z,33.80
2017-08-29T07:42:04.648Z,35.00
2017-08-29T07:44:32.386Z,35.70
2017-08-29T07:47:00.136Z,37.50
2017-08-29T07:49:27.969Z,38.20
2017-08-29T07:51:55.707Z,39.70
2017-08-29T07:54:23.470Z,41.20
2017-08-29T07:56:51.207Z,43.30
2017-08-29T07:59:18.948Z,45.00
2017-08-29T08:01:46.687Z,47.20
2017-08-29T08:04:14.424Z,47.70
2017-08-29T08:06:42.154Z,49.20
2017-08-29T08:09:09.907Z,50.90
2017-08-29T08:11:37.658Z,51.70
2017-08-29T08:14:05.395Z,52.60
2017-08-29T08:16:33.172Z,53.20
2017-08-29T08:19:00.916Z,53.90
2017-08-29T08:21:28.643Z,53.10
2017-08-29T08:23:56.380Z,54.00
2017-08-29T08:26:24.100Z,53.50
2017-08-29T08:28:51.890Z,54.00
2017-08-29T08:31:19.618Z,55.10
2017-08-29T08:33:47.369Z,54.30
2017-08-29T08:36:15.160Z,54.80
2017-08-29T08:38:42.888Z,54.10
2017-08-29T08:41:10.619Z,54.10
2017-08-29T08:43:38.347Z,54.60
2017-08-29T08:46:06.089Z,53.90
2017-08-29T08:48:33.816Z,54.60
2017-08-29T08:51:01.589Z,53.80
2017-08-29T08:53:29.334Z,53.10
2017-08-29T08:55:57.071Z,53.00
2017-08-29T08:58:24.838Z,53.20
2017-08-29T09:00:52.576Z,52.80
2017-08-29T09:03:20.391Z,50.50
2017-08-29T09:05:48.131Z,51.10
2017-08-29T09:08:15.854Z,52.40
2017-08-29T09:10:43.577Z,51.50
2017-08-29T09:13:11.306Z,51.30
2017-08-29T09:15:39.047Z,51.90
2017-08-29T09:18:06.783Z,51.40
2017-08-29T09:20:34.523Z,51.70
2017-08-29T09:23:02.261Z,51.60
2017-08-29T09:25:30.010Z,51.40
2017-08-29T09:27:57.731Z,51.20
2017-08-29T09:30:25.473Z,50.70
2017-08-29T09:32:53.211Z,50.30
2017-08-29T09:35:20.939Z,48.70
2017-08-29T09:37:48.684Z,48.30
2017-08-29T09:40:16.414Z,50.80
2017-08-29T09:42:44.159Z,49.40
2017-08-29T09:45:11.886Z,49.40
2017-08-29T09:47:39.619Z,48.70
2017-08-29T09:50:07.344Z,48.20
2017-08-29T09:52:35.075Z,48.60
2017-08-29T09:55:02.855Z,48.10
2017-08-29T09:57:30.598Z,48.30
2017-08-29T09:59:58.354Z,48.20
2017-08-29T10:02:26.118Z,44.60
2017-08-29T10:04:53.862Z,46.00
2017-08-29T10:07:21.629Z,44.30
2017-08-29T10:09:49.362Z,46.80
2017-08-29T10:12:17.103Z,46.00
2017-08-29T10:14:44.835Z,47.10
2017-08-29T10:17:12.583Z,46.60
2017-08-29T10:19:40.307Z,46.60
2017-08-29T10:22:08.045Z,46.70
2017-08-29T10:24:35.775Z,45.40
2017-08-29T10:27:03.532Z,45.90
2017-08-29T10:29:31.267Z,45.10
2017-08-29T10:31:59.067Z,44.60
2017-08-29T10:34:26.897Z,44.40
2017-08-29T10:36:54.667Z,43.60
2017-08-29T10:39:22.394Z,43.00
2017-08-29T10:41:50.136Z,43.50
2017-08-29T10:44:17.881Z,42.70
2017-08-29T10:46:45.617Z,41.80
2017-08-29T10:49:13.354Z,41.60
2017-08-29T10:51:41.080Z,42.60
2017-08-29T10:54:08.819Z,43.10
2017-08-29T10:56:36.558Z,42.00
2017-08-29T10:59:04.306Z,40.90
2017-08-29T11:01:32.072Z,41.00
2017-08-29T11:03:59.799Z,41.20
2017-08-29T11:06:27.560Z,41.20
2017-08-29T11:08:55.307Z,39.70
2017-08-29T11:11:23.071Z,36.40
2017-08-29T11:13:50.817Z,38.90
2017-08-29T11:16:18.559Z,42.20
2017-08-29T11:18:46.285Z,41.80
2017-08-29T11:21:14.042Z,43.20
2017-08-29T11:23:41.791Z,39.60
2017-08-29T11:26:09.569Z,42.20
2017-08-29T11:28:37.335Z,40.30
2017-08-29T11:31:05.141Z,37.60
2017-08-29T11:33:32.927Z,40.50
2017-08-29T11:36:00.714Z,42.80
2017-08-29T11:38:28.499Z,39.70
2017-08-29T11:40:56.282Z,41.90
2017-08-29T11:43:24.110Z,38.40
2017-08-29T11:45:51.890Z,39.00
2017-08-29T11:48:19.672Z,39.30
2017-08-29T11:50:47.462Z,39.80
2017-08-29T11:53:15.276Z,39.00
2017-08-29T11:55:43.071Z,42.70
2017-08-29T11:58:10.839Z,41.90
2017-08-29T12:00:38.617Z,40.10
2017-08-29T12:03:06.385Z,38.60
2017-08-29T12:05:34.180Z,41.90
2017-08-29T12:08:01.951Z,40.80
2017-08-29T12:10:29.718Z,40.60
2017-08-29T12:12:57.454Z,38.60
2017-08-29T12:15:25.193Z,39.20
2017-08-29T12:17:52.942Z,38.90
2017-08-29T12:20:20.710Z,38.70
2017-08-29T12:22:48.434Z,39.40
2017-08-29T12:25:16.164Z,39.90
2017-08-29T12:27:43.890Z,40.70
2017-08-29T12:30:11.622Z,39.50
2017-08-29T12:32:39.355Z,39.20
2017-08-29T12:35:07.099Z,39.00
2017-08-29T12:37:34.835Z,37.10
2017-08-29T12:40:02.581Z,39.20
2017-08-29T12:42:30.311Z,39.90
2017-08-29T12:44:58.095Z,36.50
2017-08-29T12:47:25.868Z,37.90
2017-08-29T12:49:53.595Z,37.30
2017-08-29T12:52:21.319Z,39.40
2017-08-29T12:54:49.091Z,38.80
2017-08-29T12:57:16.807Z,37.90
2017-08-29T12:59:44.542Z,38.80
2017-08-29T13:02:12.258Z,38.90
2017-08-29T13:04:39.978Z,38.10
2017-08-29T13:07:07.706Z,37.20
2017-08-29T13:09:35.432Z,38.20
2017-08-29T13:12:03.208Z,38.20
2017-08-29T13:14:30.994Z,33.60
2017-08-29T13:16:58.712Z,37.40
2017-08-29T13:19:26.441Z,35.70
2017-08-29T13:21:54.203Z,36.30
2017-08-29T13:24:21.967Z,36.50
2017-08-29T13:26:49.707Z,37.40
2017-08-29T13:29:17.464Z,36.40
2017-08-29T13:31:45.196Z,35.50
2017-08-29T13:34:12.934Z,37.00
2017-08-29T13:36:40.662Z,40.90
2017-08-29T13:39:08.383Z,39.70
2017-08-29T13:41:36.107Z,37.70
2017-08-29T13:44:03.846Z,39.00
2017-08-29T13:46:31.570Z,36.00
2017-08-29T13:48:59.291Z,37.00
2017-08-29T13:51:27.020Z,38.90
2017-08-29T13:53:54.743Z,38.70
2017-08-29T13:56:22.470Z,40.20
2017-08-29T13:58:50.204Z,38.30
2017-08-29T14:01:17.946Z,41.20
2017-08-29T14:03:45.674Z,40.10
2017-08-29T14:06:13.436Z,36.60
2017-08-29T14:08:41.185Z,40.90
2017-08-29T14:11:08.994Z,38.90
2017-08-29T14:13:36.722Z,38.30
2017-08-29T14:16:04.450Z,37.90
2017-08-29T14:18:32.170Z,35.80
2017-08-29T14:20:59.910Z,34.70
2017-08-29T14:23:27.647Z,37.00
2017-08-29T14:25:55.385Z,38.00
2017-08-29T14:28:23.137Z,40.10
2017-08-29T14:30:50.872Z,35.50
2017-08-29T14:33:18.595Z,38.20
2017-08-29T14:35:46.327Z,37.10
2017-08-29T14:38:14.061Z,39.50
2017-08-29T14:40:41.799Z,39.10
2017-08-29T14:43:09.538Z,42.70
2017-08-29T14:45:37.279Z,39.20
2017-08-29T14:48:30.798Z,36.70
2017-08-29T14:50:58.554Z,37.80
2017-08-29T14:53:26.283Z,38.90
2017-08-29T14:55:54.015Z,39.10
2017-08-29T14:58:21.743Z,40.10
2017-08-29T15:00:49.480Z,41.70
2017-08-29T15:03:17.231Z,39.50
2017-08-29T15:05:44.962Z,37.90
2017-08-29T15:08:12.702Z,39.60
2017-08-29T15:10:40.426Z,40.00
2017-08-29T15:13:08.158Z,42.40
2017-08-29T15:15:35.933Z,40.00
2017-08-29T15:18:03.669Z,38.20
2017-08-29T15:20:31.400Z,39.60
2017-08-29T15:22:59.131Z,43.00
2017-08-29T15:25:26.865Z,40.00
2017-08-29T15:27:54.607Z,41.80
2017-08-29T15:30:22.351Z,39.80
2017-08-29T15:32:50.089Z,40.40
2017-08-29T15:35:17.818Z,42.20
2017-08-29T15:37:45.561Z,44.30
2017-08-29T15:40:13.292Z,43.90
2017-08-29T15:42:41.022Z,41.70
2017-08-29T15:45:08.760Z,40.40
2017-08-29T15:47:36.482Z,42.20
2017-08-29T15:50:04.239Z,41.40
2017-08-29T15:52:31.995Z,42.10
2017-08-29T15:54:59.755Z,43.20
2017-08-29T15:57:27.486Z,44.30
2017-08-29T15:59:56.111Z,46.10
2017-08-29T16:02:23.851Z,42.50
2017-08-29T16:04:52.350Z,43.20
2017-08-29T16:07:20.095Z,43.10
2017-08-29T16:09:48.264Z,44.00
2017-08-29T16:12:16.094Z,42.60
2017-08-29T16:14:43.822Z,42.60
2017-08-29T16:17:11.560Z,42.30
2017-08-29T16:19:39.303Z,44.20
2017-08-29T16:22:07.038Z,43.80
2017-08-29T16:24:34.811Z,43.20
2017-08-29T16:27:02.575Z,43.10
2017-08-29T16:29:30.335Z,43.90
2017-08-29T16:31:58.123Z,48.00
2017-08-29T16:34:25.876Z,52.40
2017-08-29T16:36:53.611Z,53.30
2017-08-29T16:39:21.351Z,54.70
2017-08-29T16:41:49.078Z,57.50
2017-08-29T16:44:16.811Z,61.80
2017-08-29T16:46:44.539Z,63.50
2017-08-29T16:49:12.274Z,64.60
2017-08-29T16:51:40.006Z,66.90
2017-08-29T16:54:07.742Z,68.50
2017-08-29T16:56:35.482Z,69.60
2017-08-29T16:59:03.232Z,70.30
2017-08-29T17:01:30.972Z,69.60
2017-08-29T17:03:58.710Z,70.30
2017-08-29T17:06:26.459Z,71.00
2017-08-29T17:08:54.202Z,74.00
2017-08-29T17:11:21.976Z,75.00
2017-08-29T17:13:49.727Z,76.20
2017-08-29T17:16:17.463Z,75.50
2017-08-29T17:18:45.203Z,74.70
2017-08-29T17:21:12.926Z,74.70
2017-08-29T17:23:40.658Z,74.00
2017-08-29T17:26:08.405Z,73.10
2017-08-29T17:28:36.139Z,72.40
2017-08-29T17:31:03.873Z,72.70
2017-08-29T17:33:31.610Z,72.80
2017-08-29T17:35:59.348Z,72.70
2017-08-29T17:38:27.096Z,73.00
2017-08-29T17:40:55.595Z,73.00
2017-08-29T17:43:23.330Z,73.00
2017-08-29T17:45:51.063Z,73.50
2017-08-29T17:48:18.814Z,73.90
2017-08-29T17:50:46.551Z,74.30
2017-08-29T17:53:14.279Z,74.20
2017-08-29T17:55:42.015Z,75.30
2017-08-29T17:58:09.760Z,75.10
2017-08-29T18:00:37.544Z,75.40
2017-08-29T18:03:05.294Z,75.30
2017-08-29T18:05:33.067Z,75.60
2017-08-29T18:08:00.797Z,75.90
2017-08-29T18:10:28.526Z,76.00
2017-08-29T18:12:56.262Z,76.70
2017-08-29T18:15:24.046Z,76.60
2017-08-29T18:17:51.786Z,76.80
2017-08-29T18:20:19.550Z,77.70
2017-08-29T18:22:47.283Z,78.10
2017-08-29T18:25:15.018Z,78.20
2017-08-29T18:27:42.760Z,78.80
2017-08-29T18:30:10.503Z,79.30
2017-08-29T18:32:38.251Z,79.60
2017-08-29T18:35:05.996Z,79.70
2017-08-29T18:37:33.738Z,80.40
2017-08-29T18:40:01.466Z,80.80
2017-08-29T18:42:29.264Z,81.60
2017-08-29T18:44:57.002Z,81.30
2017-08-29T18:47:24.770Z,81.00
2017-08-29T18:49:52.504Z,81.10
2017-08-29T18:52:20.236Z,81.50
2017-08-29T18:54:47.986Z,80.90
2017-08-29T18:57:15.707Z,80.90
2017-08-29T18:59:43.487Z,80.80
2017-08-29T19:02:11.222Z,81.30
2017-08-29T19:04:38.948Z,81.30
2017-08-29T19:07:06.688Z,81.60
2017-08-29T19:09:34.552Z,82.10
2017-08-29T19:12:02.282Z,82.60
2017-08-29T19:14:30.043Z,82.50
2017-08-29T19:16:57.791Z,82.80
2017-08-29T19:19:25.530Z,83.20
2017-08-29T19:21:53.375Z,83.40
2017-08-29T19:24:21.242Z,83.50
2017-08-29T19:26:48.959Z,84.00
2017-08-29T19:29:16.817Z,84.30
2017-08-29T19:31:44.595Z,84.10
2017-08-29T19:34:12.334Z,84.40
2017-08-29T19:36:40.067Z,85.40
2017-08-29T19:39:07.807Z,84.50
2017-08-29T19:41:35.556Z,85.10
2017-08-29T19:44:03.315Z,84.50
2017-08-29T19:46:31.056Z,84.20
2017-08-29T19:48:58.784Z,84.30
2017-08-29T19:51:26.547Z,84.40
2017-08-29T19:53:54.266Z,84.60
2017-08-29T19:56:21.992Z,84.90
2017-08-29T19:58:49.720Z,85.40
2017-08-29T20:01:17.438Z,85.90
2017-08-29T20:03:45.167Z,86.80
2017-08-29T20:06:12.941Z,86.30
2017-08-29T20:08:40.675Z,86.30
2017-08-29T20:11:08.405Z,86.50
2017-08-29T20:13:36.132Z,87.10
2017-08-29T20:16:03.883Z,87.30
2017-08-29T20:18:31.598Z,87.70
2017-08-29T20:20:59.327Z,87.60
2017-08-29T20:23:27.082Z,87.40
2017-08-29T20:25:54.797Z,87.20
2017-08-29T20:28:22.563Z,87.00
2017-08-29T20:30:50.310Z,87.20
2017-08-29T20:33:18.033Z,87.60
2017-08-29T20:35:46.070Z,87.90
2017-08-29T20:38:13.794Z,88.20
2017-08-29T20:40:42.271Z,87.50
2017-08-29T20:43:10.032Z,88.40
2017-08-29T20:45:37.760Z,87.20
2017-08-29T20:48:05.495Z,87.10
2017-08-29T20:50:33.221Z,86.30
2017-08-29T20:53:00.946Z,86.60
2017-08-29T20:55:28.675Z,86.40
2017-08-29T20:57:56.415Z,86.90
2017-08-29T21:00:24.153Z,87.00
2017-08-29T21:02:51.890Z,87.20
2017-08-29T21:05:19.619Z,87.50
2017-08-29T21:07:47.371Z,89.00
2017-08-29T21:10:15.107Z,89.80
2017-08-29T21:12:42.850Z,89.40
2017-08-29T21:15:10.578Z,89.60
2017-08-29T21:17:38.298Z,89.00
2017-08-29T21:20:06.039Z,89.10
2017-08-29T21:22:33.753Z,88.80
2017-08-29T21:25:01.484Z,89.40
2017-08-29T21:27:29.216Z,90.00
2017-08-29T21:29:56.949Z,90.00
2017-08-29T21:32:24.697Z,90.00
2017-08-29T21:34:52.548Z,89.50
2017-08-29T21:37:20.302Z,88.40
2017-08-29T21:39:48.032Z,88.20
2017-08-29T21:42:15.809Z,88.30
2017-08-29T21:44:44.991Z,89.60
2017-08-29T21:47:12.750Z,89.40
2017-08-29T21:49:40.493Z,89.10
2017-08-29T21:52:08.223Z,88.80
2017-08-29T21:54:35.959Z,88.60
2017-08-29T21:57:03.679Z,88.80
2017-08-29T21:59:31.410Z,88.40
2017-08-29T22:01:59.164Z,87.80
2017-08-29T22:04:26.894Z,88.30
2017-08-29T22:06:54.614Z,87.80
2017-08-29T22:09:22.343Z,88.20
2017-08-29T22:11:50.093Z,88.20
2017-08-29T22:14:17.907Z,88.30
2017-08-29T22:16:45.647Z,88.10
2017-08-29T22:19:13.603Z,87.60
2017-08-29T22:21:41.335Z,88.20
2017-08-29T22:24:09.074Z,88.30
2017-08-29T22:26:36.797Z,88.80
2017-08-29T22:29:04.528Z,89.10
2017-08-29T22:31:32.265Z,89.60
2017-08-29T22:33:59.990Z,89.40
2017-08-29T22:36:27.727Z,89.10
2017-08-29T22:38:55.450Z,88.50
2017-08-29T22:41:23.215Z,88.70
2017-08-29T22:43:50.947Z,88.40
2017-08-29T22:46:18.707Z,88.40
2017-08-29T22:48:46.427Z,88.80
2017-08-29T22:51:14.172Z,88.90
2017-08-29T22:53:41.899Z,89.00
2017-08-29T22:56:09.668Z,89.00
2017-08-29T22:58:37.395Z,88.80
2017-08-29T23:01:05.199Z,88.40
2017-08-29T23:03:32.950Z,88.40
2017-08-29T23:06:00.722Z,88.60
2017-08-29T23:08:28.482Z,89.10
2017-08-29T23:10:56.267Z,88.30
2017-08-29T23:13:24.014Z,89.10
2017-08-29T23:15:51.751Z,88.40
2017-08-29T23:18:19.491Z,88.80
2017-08-29T23:20:47.232Z,88.70
2017-08-29T23:23:14.975Z,88.70
2017-08-29T23:25:42.724Z,88.90
2017-08-29T23:28:10.483Z,88.90
2017-08-29T23:30:38.233Z,89.00
2017-08-29T23:33:06.022Z,89.60
2017-08-29T23:35:33.758Z,88.90
2017-08-29T23:38:01.503Z,88.20
2017-08-29T23:40:29.270Z,88.80
2017-08-29T23:42:57.002Z,88.50
2017-08-29T23:45:24.743Z,88.10
2017-08-29T23:47:52.504Z,88.60
2017-08-29T23:50:20.290Z,88.30
2017-08-29T23:52:48.027Z,89.20
2017-08-29T23:55:15.766Z,89.30
2017-08-29T23:57:43.490Z,89.20
